Willow, Oklahoma
Current Conditions -  °F | °C
As of 9:35 AM on Saturday 20 Dec 2014 (Local Time) from KAXS Reporting Station
Broken Clouds Broken Clouds  
Wind Chill: 39°   Ceiling: 2500
Heat Index: 44°   Visibility: 7mi
Dew Point: 40°   Wind: 8mph
Humidity: 86%   Direction: 130°SE
Pressure: 30.22"   Gusts: NA
Location:  35.05°N, 99.51°W
Report Text: KAXS 201535Z AUTO 13007KT 7SM BKN025 07/04 A3022 RMK AO2 T00650043
Loading
Personal Weather Stations






























Interactive Weather Map New forecast layout! Learn more

10-Day Weather Forecast

Advertisements
Track Severe Weather on mobile